createdAt,value
2022-10-14T00:01:27.906Z,37.00
2022-10-14T00:03:56.545Z,26.30
2022-10-14T00:06:27.212Z,35.33
2022-10-14T00:08:56.036Z,35.53
2022-10-14T00:11:26.876Z,39.00
2022-10-14T00:13:56.759Z,32.13
2022-10-14T00:16:29.668Z,32.38
2022-10-14T00:18:58.752Z,33.28
2022-10-14T00:21:28.647Z,31.85
2022-10-14T00:23:57.738Z,31.75
2022-10-14T00:26:30.784Z,35.22
2022-10-14T00:29:02.057Z,37.28
2022-10-14T00:31:34.460Z,41.83
2022-10-14T00:34:03.359Z,41.95
2022-10-14T00:36:31.867Z,38.13
2022-10-14T00:39:00.621Z,35.13
2022-10-14T00:41:31.931Z,37.03
2022-10-14T00:44:04.171Z,32.78
2022-10-14T00:46:36.604Z,27.80
2022-10-14T00:49:13.157Z,46.45
2022-10-14T00:51:45.148Z,34.92
2022-10-14T00:54:17.917Z,35.42
2022-10-14T00:56:48.984Z,30.45
2022-10-14T00:59:18.009Z,31.52
2022-10-14T01:01:47.703Z,35.30
2022-10-14T01:04:15.911Z,31.50
2022-10-14T01:06:53.857Z,36.78
2022-10-14T01:09:29.604Z,33.72
2022-10-14T01:12:29.592Z,36.35
2022-10-14T01:15:08.505Z,32.75
2022-10-14T01:17:53.316Z,31.80
2022-10-14T01:20:50.572Z,32.95
2022-10-14T01:24:08.543Z,35.28
2022-10-14T01:27:00.713Z,28.17
2022-10-14T01:30:08.867Z,28.15
2022-10-14T01:32:46.648Z,30.35
2022-10-14T01:35:30.748Z,30.67
2022-10-14T01:38:02.882Z,36.60
2022-10-14T01:40:38.233Z,30.08
2022-10-14T01:43:07.723Z,34.53
2022-10-14T01:45:40.894Z,29.15
2022-10-14T01:48:14.232Z,29.35
2022-10-14T01:50:46.280Z,31.00
2022-10-14T01:53:20.545Z,27.52
2022-10-14T01:55:50.157Z,30.02
2022-10-14T01:58:21.514Z,37.00
2022-10-14T02:00:52.559Z,32.65
2022-10-14T02:03:21.260Z,34.95
2022-10-14T02:05:59.312Z,29.00
2022-10-14T02:08:37.235Z,30.80
2022-10-14T02:11:12.283Z,33.30
2022-10-14T02:14:05.025Z,31.17
2022-10-14T02:16:41.909Z,33.22
2022-10-14T02:19:23.957Z,38.83
2022-10-14T02:21:59.080Z,33.95
2022-10-14T02:24:32.559Z,31.15
2022-10-14T02:27:06.465Z,47.65
2022-10-14T02:29:36.155Z,26.53
2022-10-14T02:32:08.107Z,30.50
2022-10-14T02:34:38.695Z,33.22
2022-10-14T02:37:11.937Z,32.58
2022-10-14T02:39:45.515Z,35.65
2022-10-14T02:42:14.107Z,43.70
2022-10-14T02:44:54.933Z,26.38
2022-10-14T02:47:25.703Z,37.88
2022-10-14T02:49:54.505Z,33.97
2022-10-14T02:52:23.401Z,39.15
2022-10-14T02:54:54.308Z,28.05
2022-10-14T02:57:23.660Z,36.50
2022-10-14T02:59:52.230Z,26.58
2022-10-14T03:02:21.217Z,36.92
2022-10-14T03:04:50.977Z,26.23
2022-10-14T03:07:19.495Z,30.50
2022-10-14T03:09:51.932Z,38.65
2022-10-14T03:12:21.081Z,29.10
2022-10-14T03:14:51.038Z,34.10
2022-10-14T03:17:20.431Z,39.50
2022-10-14T03:19:51.948Z,29.65
2022-10-14T03:22:20.909Z,37.65
2022-10-14T03:24:49.193Z,38.20
2022-10-14T03:27:36.311Z,30.33
2022-10-14T03:30:10.465Z,29.50
2022-10-14T03:32:45.977Z,39.47
2022-10-14T03:35:24.617Z,39.42
2022-10-14T03:37:56.495Z,26.48
2022-10-14T03:40:30.957Z,30.70
2022-10-14T03:43:02.020Z,34.40
2022-10-14T03:45:38.454Z,34.17
2022-10-14T03:48:07.956Z,29.65
2022-10-14T03:50:41.496Z,31.95
2022-10-14T03:53:11.176Z,42.55
2022-10-14T03:55:41.259Z,32.92
2022-10-14T03:58:11.874Z,34.08
2022-10-14T04:00:43.045Z,47.75
2022-10-14T04:03:24.210Z,42.50
2022-10-14T04:05:53.799Z,31.02
2022-10-14T04:08:24.988Z,37.05
2022-10-14T04:10:58.852Z,34.13
2022-10-14T04:13:31.478Z,35.25
2022-10-14T04:16:04.930Z,37.00
2022-10-14T04:18:39.024Z,47.55
2022-10-14T04:21:12.393Z,31.40
2022-10-14T04:23:43.613Z,40.28
2022-10-14T04:26:17.449Z,38.92
2022-10-14T04:28:47.871Z,39.92
2022-10-14T04:31:29.843Z,35.20
2022-10-14T04:34:02.966Z,38.40
2022-10-14T04:36:38.579Z,40.87
2022-10-14T04:39:21.089Z,36.15
2022-10-14T04:41:49.820Z,33.95
2022-10-14T04:44:21.434Z,26.92
2022-10-14T04:46:52.914Z,29.42
2022-10-14T04:49:24.294Z,32.83
2022-10-14T04:52:05.815Z,37.10
2022-10-14T04:54:42.972Z,36.10
2022-10-14T04:57:12.416Z,37.75
2022-10-14T04:59:41.564Z,33.33
2022-10-14T05:02:21.594Z,41.60
2022-10-14T05:04:59.548Z,31.75
2022-10-14T05:07:31.356Z,42.53
2022-10-14T05:10:11.105Z,38.10
2022-10-14T05:12:43.492Z,30.80
2022-10-14T05:15:12.697Z,32.55
2022-10-14T05:17:55.517Z,36.58
2022-10-14T05:20:30.572Z,36.45
2022-10-14T05:23:01.298Z,35.47
2022-10-14T05:25:29.665Z,37.75
2022-10-14T05:27:58.401Z,34.28
2022-10-14T05:30:32.215Z,40.50
2022-10-14T05:33:04.022Z,35.17
2022-10-14T05:35:54.045Z,43.88
2022-10-14T05:38:22.900Z,38.65
2022-10-14T05:40:55.007Z,46.05
2022-10-14T05:43:29.259Z,41.45
2022-10-14T05:46:00.766Z,42.63
2022-10-14T05:48:32.171Z,31.73
2022-10-14T05:51:03.288Z,48.67
2022-10-14T05:53:35.297Z,38.28
2022-10-14T05:56:11.079Z,48.30
2022-10-14T05:58:42.090Z,41.72
2022-10-14T06:01:12.417Z,38.95
2022-10-14T06:03:43.274Z,39.60
2022-10-14T06:06:14.988Z,46.03
2022-10-14T06:08:45.508Z,39.67
2022-10-14T06:11:14.269Z,43.67
2022-10-14T06:13:42.611Z,43.72
2022-10-14T06:16:12.064Z,52.63
2022-10-14T06:18:40.869Z,48.97
2022-10-14T06:21:10.694Z,42.13
2022-10-14T06:23:39.214Z,44.72
2022-10-14T06:26:09.966Z,38.88
2022-10-14T06:28:41.581Z,44.85
2022-10-14T06:31:10.416Z,35.88
2022-10-14T06:33:38.934Z,36.72
2022-10-14T06:36:08.521Z,37.83
2022-10-14T06:38:37.037Z,40.63
2022-10-14T06:41:05.307Z,43.88
2022-10-14T06:43:35.296Z,47.25
2022-10-14T06:46:04.711Z,40.85
2022-10-14T06:48:33.298Z,36.78
2022-10-14T06:51:02.399Z,51.97
2022-10-14T06:53:31.036Z,46.92
2022-10-14T06:56:01.583Z,49.28
2022-10-14T06:58:32.884Z,32.53
2022-10-14T07:01:05.725Z,40.45
2022-10-14T07:03:37.556Z,38.70
2022-10-14T07:06:07.490Z,40.30
2022-10-14T07:08:36.668Z,42.25
2022-10-14T07:11:06.203Z,35.45
2022-10-14T07:13:35.246Z,37.88
2022-10-14T07:16:05.253Z,40.47
2022-10-14T07:18:34.380Z,39.15
2022-10-14T07:21:06.824Z,37.30
2022-10-14T07:23:35.425Z,34.78
2022-10-14T07:26:04.562Z,32.45
2022-10-14T07:28:34.114Z,34.47
2022-10-14T07:31:06.988Z,33.22
2022-10-14T07:36:09.776Z,35.00
2022-10-14T07:38:38.720Z,34.20
2022-10-14T07:41:16.780Z,31.73
2022-10-14T07:43:45.513Z,39.35
2022-10-14T07:46:16.859Z,36.28
2022-10-14T07:48:56.576Z,34.72
2022-10-14T07:51:26.516Z,35.90
2022-10-14T07:53:55.099Z,33.92
2022-10-14T07:56:24.128Z,32.90
2022-10-14T07:58:53.044Z,30.17
2022-10-14T08:01:24.233Z,28.75
2022-10-14T08:03:53.333Z,26.13
2022-10-14T08:06:21.635Z,22.38
2022-10-14T08:08:50.531Z,27.08
2022-10-14T08:11:22.008Z,20.20
2022-10-14T08:13:50.723Z,19.58
2022-10-14T08:16:23.405Z,20.88
2022-10-14T08:18:52.791Z,26.42
2022-10-14T08:21:21.993Z,35.50
2022-10-14T08:23:50.765Z,19.70
2022-10-14T08:26:23.304Z,22.58
2022-10-14T08:28:52.965Z,23.27
2022-10-14T08:31:22.993Z,28.20
2022-10-14T08:33:52.196Z,26.20
2022-10-14T08:36:21.961Z,24.02
2022-10-14T08:38:52.512Z,24.73
2022-10-14T08:41:57.608Z,20.40
2022-10-14T08:44:29.854Z,23.33
2022-10-14T08:47:02.215Z,37.78
2022-10-14T08:49:36.512Z,22.98
2022-10-14T08:52:11.812Z,20.13
2022-10-14T08:54:45.278Z,28.50
2022-10-14T08:57:19.128Z,22.40
2022-10-14T08:59:47.624Z,25.40
2022-10-14T09:02:31.930Z,24.23
2022-10-14T09:05:02.129Z,27.43
2022-10-14T09:07:32.714Z,24.23
2022-10-14T09:10:07.610Z,25.77
2022-10-14T09:15:17.884Z,19.38
2022-10-14T09:17:53.611Z,19.45
2022-10-14T09:20:24.751Z,19.38
2022-10-14T09:23:06.863Z,20.52
2022-10-14T09:25:37.823Z,23.83
2022-10-14T09:28:06.477Z,19.73
2022-10-14T09:30:39.033Z,16.73
2022-10-14T09:33:12.039Z,24.00
2022-10-14T09:35:44.667Z,24.20
2022-10-14T09:38:13.617Z,27.52
2022-10-14T09:40:45.087Z,19.98
2022-10-14T09:43:19.632Z,15.20
2022-10-14T09:45:56.941Z,13.85
2022-10-14T09:48:38.412Z,12.07
2022-10-14T09:51:10.209Z,15.73
2022-10-14T09:53:45.216Z,12.10
2022-10-14T09:56:14.017Z,12.98
2022-10-14T09:58:47.479Z,11.10
2022-10-14T10:01:18.993Z,20.00
2022-10-14T10:03:50.562Z,14.82
2022-10-14T10:06:21.470Z,17.17
2022-10-14T10:09:00.051Z,15.00
2022-10-14T10:11:31.148Z,11.80
2022-10-14T10:14:16.575Z,16.88
2022-10-14T10:16:45.277Z,14.05
2022-10-14T10:19:29.622Z,18.75
2022-10-14T10:22:22.504Z,8.57
2022-10-14T10:24:53.264Z,12.77
2022-10-14T10:27:26.000Z,17.05
2022-10-14T10:29:56.215Z,18.02
2022-10-14T10:32:34.099Z,10.88
2022-10-14T10:35:16.351Z,13.15
2022-10-14T10:38:01.031Z,18.60
2022-10-14T10:40:37.510Z,11.65
2022-10-14T10:43:34.286Z,11.15
2022-10-14T10:46:34.617Z,10.95
2022-10-14T10:49:11.253Z,18.70
2022-10-14T10:51:53.313Z,14.98
2022-10-14T10:54:33.160Z,13.43
2022-10-14T10:57:09.505Z,8.25
2022-10-14T10:59:56.253Z,15.65
2022-10-14T11:03:00.351Z,13.43
2022-10-14T11:05:47.272Z,11.63
2022-10-14T11:09:10.714Z,11.23
2022-10-14T11:12:12.730Z,16.13
2022-10-14T11:15:20.272Z,17.98
2022-10-14T11:17:55.173Z,13.40
2022-10-14T11:23:22.622Z,12.55
2022-10-14T11:26:01.066Z,20.38
2022-10-14T11:28:40.114Z,17.75
2022-10-14T11:31:24.208Z,14.45
2022-10-14T11:34:31.413Z,9.45
2022-10-14T11:37:14.984Z,14.82
2022-10-14T11:39:49.840Z,19.95
2022-10-14T11:42:38.696Z,15.23
2022-10-14T11:45:29.705Z,17.40
2022-10-14T11:48:11.360Z,20.33
2022-10-14T11:50:44.195Z,16.00
2022-10-14T11:53:18.003Z,15.27
2022-10-14T11:55:55.218Z,13.82
2022-10-14T11:58:28.609Z,16.48
2022-10-14T12:01:01.310Z,17.95
2022-10-14T12:03:46.548Z,11.23
2022-10-14T12:08:55.166Z,17.08
2022-10-14T12:11:31.816Z,17.92
2022-10-14T12:14:10.301Z,26.23
2022-10-14T12:16:42.477Z,17.00
2022-10-14T12:19:17.733Z,25.13
2022-10-14T12:21:52.844Z,12.93
2022-10-14T12:24:26.211Z,14.15
2022-10-14T12:26:58.249Z,21.35
2022-10-14T12:29:33.319Z,17.10
2022-10-14T12:32:21.009Z,14.10
2022-10-14T12:34:54.633Z,16.80
2022-10-14T12:37:51.861Z,21.77
2022-10-14T12:40:31.494Z,22.70
2022-10-14T12:43:24.489Z,22.25
2022-10-14T12:46:03.361Z,14.82
2022-10-14T12:48:34.467Z,19.70
2022-10-14T12:51:14.530Z,17.70
2022-10-14T12:54:04.644Z,14.40
2022-10-14T12:56:39.257Z,13.82
2022-10-14T12:59:10.403Z,11.98
2022-10-14T13:01:44.948Z,10.73
2022-10-14T13:04:20.306Z,14.82
2022-10-14T13:07:43.693Z,7.55
2022-10-14T13:10:50.592Z,16.45
2022-10-14T13:14:02.072Z,8.43
2022-10-14T13:17:28.470Z,7.55
2022-10-14T13:19:57.095Z,5.30
2022-10-14T13:22:43.566Z,12.68
2022-10-14T13:25:22.131Z,7.70
2022-10-14T13:28:05.212Z,31.75
2022-10-14T13:30:49.791Z,10.73
2022-10-14T13:33:27.825Z,11.73
2022-10-14T13:36:08.728Z,12.48
2022-10-14T13:38:43.780Z,6.63
2022-10-14T13:41:18.464Z,11.10
2022-10-14T13:43:47.083Z,7.72
2022-10-14T13:46:22.559Z,9.95
2022-10-14T13:48:56.442Z,9.95
2022-10-14T13:51:37.525Z,11.68
2022-10-14T13:54:19.733Z,11.65
2022-10-14T14:02:49.029Z,12.15
2022-10-14T14:05:25.458Z,9.63
2022-10-14T14:11:11.413Z,5.63
2022-10-14T14:14:00.249Z,9.77
2022-10-14T14:16:34.936Z,6.95
2022-10-14T14:19:09.675Z,6.45
2022-10-14T14:21:40.057Z,11.02
2022-10-14T14:24:23.193Z,7.57
2022-10-14T14:26:56.404Z,8.30
2022-10-14T14:29:30.628Z,10.57
2022-10-14T14:32:06.839Z,11.68
2022-10-14T14:34:38.687Z,11.60
2022-10-14T14:37:40.264Z,11.05
2022-10-14T14:40:16.028Z,13.98
2022-10-14T14:42:46.999Z,8.40
2022-10-14T14:45:20.420Z,8.55
2022-10-14T14:47:54.387Z,10.57
2022-10-14T14:50:31.679Z,8.27
2022-10-14T14:53:08.276Z,14.40
2022-10-14T14:55:45.078Z,5.45
2022-10-14T14:58:34.317Z,8.85
2022-10-14T15:01:04.987Z,5.47
2022-10-14T15:04:13.374Z,7.28
2022-10-14T15:06:38.697Z,9.88
2022-10-14T15:09:15.498Z,11.18
2022-10-14T15:11:51.753Z,9.57
2022-10-14T15:14:33.995Z,10.90
2022-10-14T15:17:05.604Z,13.93
2022-10-14T15:19:38.780Z,5.55
2022-10-14T15:22:35.152Z,9.45
2022-10-14T15:25:09.166Z,9.02
2022-10-14T15:27:46.647Z,8.43
2022-10-14T15:30:34.576Z,5.60
2022-10-14T15:33:14.200Z,7.10
2022-10-14T15:35:43.568Z,10.60
2022-10-14T15:38:18.107Z,8.20
2022-10-14T15:40:49.384Z,7.00
2022-10-14T15:43:27.833Z,7.13
2022-10-14T15:46:20.336Z,6.45
2022-10-14T15:48:52.152Z,6.45
2022-10-14T15:51:23.733Z,10.73
2022-10-14T15:53:52.558Z,13.30
2022-10-14T15:56:22.141Z,14.02
2022-10-14T15:58:50.729Z,13.52
2022-10-14T16:01:21.728Z,9.63
2022-10-14T16:03:52.424Z,15.00
2022-10-14T16:06:22.554Z,12.20
2022-10-14T16:08:51.051Z,9.85
2022-10-14T16:11:24.160Z,13.80
2022-10-14T16:13:52.427Z,11.38
2022-10-14T16:16:26.792Z,16.13
2022-10-14T16:18:55.035Z,15.98
2022-10-14T16:21:23.207Z,14.35
2022-10-14T16:23:52.696Z,14.02
2022-10-14T16:26:22.692Z,17.42
2022-10-14T16:28:51.363Z,14.98
2022-10-14T16:31:22.225Z,13.57
2022-10-14T16:33:55.581Z,12.48
2022-10-14T16:36:25.958Z,13.38
2022-10-14T16:38:56.557Z,15.13
2022-10-14T16:41:30.918Z,11.43
2022-10-14T16:43:59.120Z,13.07
2022-10-14T16:46:41.524Z,14.07
2022-10-14T16:49:10.168Z,15.38
2022-10-14T16:51:38.681Z,8.38
2022-10-14T16:54:09.767Z,8.88
2022-10-14T16:56:54.304Z,13.50
2022-10-14T16:59:22.947Z,8.60
2022-10-14T17:01:51.934Z,10.85
2022-10-14T17:04:21.220Z,12.00
2022-10-14T17:06:54.833Z,9.27
2022-10-14T17:09:25.875Z,13.30
2022-10-14T17:11:57.131Z,9.30
2022-10-14T17:14:25.832Z,8.30
2022-10-14T17:16:54.045Z,8.38
2022-10-14T17:19:23.913Z,10.45
2022-10-14T17:21:52.133Z,9.90
2022-10-14T17:24:20.671Z,8.45
2022-10-14T17:26:49.181Z,7.10
2022-10-14T17:29:20.335Z,14.80
2022-10-14T17:31:51.464Z,8.57
2022-10-14T17:34:19.959Z,8.93
2022-10-14T17:36:49.111Z,9.10
2022-10-14T17:39:25.826Z,17.55
2022-10-14T17:41:57.703Z,12.45
2022-10-14T17:44:28.861Z,12.88
2022-10-14T17:46:59.237Z,9.27
2022-10-14T17:49:27.739Z,7.78
2022-10-14T17:51:56.676Z,6.72
2022-10-14T17:54:24.841Z,5.38
2022-10-14T17:56:53.328Z,4.30
2022-10-14T17:59:22.175Z,7.78
2022-10-14T18:02:07.346Z,7.50
2022-10-14T18:07:04.076Z,8.60
2022-10-14T18:09:33.851Z,9.13
2022-10-14T18:12:10.348Z,13.05
2022-10-14T18:14:40.382Z,20.17
2022-10-14T18:17:12.834Z,16.08
2022-10-14T18:19:52.126Z,10.57
2022-10-14T18:22:21.280Z,6.95
2022-10-14T18:24:49.461Z,18.08
2022-10-14T18:27:18.707Z,8.05
2022-10-14T18:29:47.001Z,14.38
2022-10-14T18:32:17.723Z,17.77
2022-10-14T18:34:47.587Z,14.45
2022-10-14T18:37:15.813Z,15.38
2022-10-14T18:39:44.643Z,16.73
2022-10-14T18:42:16.035Z,11.73
2022-10-14T18:44:46.744Z,12.30
2022-10-14T18:47:16.815Z,14.77
2022-10-14T18:49:46.141Z,11.40
2022-10-14T18:52:15.516Z,15.77
2022-10-14T18:54:44.184Z,15.32
2022-10-14T18:57:14.874Z,9.75
2022-10-14T18:59:43.605Z,9.85
2022-10-14T19:02:16.932Z,7.70
2022-10-14T19:04:45.551Z,4.78
2022-10-14T19:07:14.090Z,9.02
2022-10-14T19:09:42.780Z,3.85
2022-10-14T19:12:25.425Z,5.13
2022-10-14T19:14:54.180Z,3.53
2022-10-14T19:17:23.747Z,3.47
2022-10-14T19:19:52.282Z,7.28
2022-10-14T19:22:21.298Z,6.15
2022-10-14T19:24:50.041Z,4.97
2022-10-14T19:27:18.533Z,2.33
2022-10-14T19:29:47.083Z,6.15
2022-10-14T19:32:15.556Z,2.58
2022-10-14T19:34:47.507Z,2.17
2022-10-14T19:37:16.108Z,4.35
2022-10-14T19:39:44.666Z,3.17
2022-10-14T19:42:12.973Z,5.28
2022-10-14T19:44:41.255Z,7.15
2022-10-14T19:47:10.155Z,9.38
2022-10-14T19:49:40.723Z,5.00
2022-10-14T19:52:10.545Z,11.30
2022-10-14T19:54:38.786Z,5.68
2022-10-14T19:57:07.274Z,6.75
2022-10-14T19:59:35.864Z,9.63
2022-10-14T20:02:04.509Z,7.22
2022-10-14T20:04:32.997Z,8.98
2022-10-14T20:07:01.269Z,7.00
2022-10-14T20:09:30.813Z,7.82
2022-10-14T20:11:59.291Z,12.98
2022-10-14T20:14:27.944Z,8.13
2022-10-14T20:16:56.152Z,6.20
2022-10-14T20:19:24.422Z,6.97
2022-10-14T20:21:52.919Z,9.15
2022-10-14T20:24:21.072Z,5.57
2022-10-14T20:26:50.652Z,8.95
2022-10-14T20:29:19.195Z,6.70
2022-10-14T20:31:47.676Z,9.45
2022-10-14T20:34:16.751Z,10.32
2022-10-14T20:36:45.356Z,5.45
2022-10-14T20:39:14.153Z,11.48
2022-10-14T20:41:42.689Z,6.60
2022-10-14T20:44:12.345Z,11.65
2022-10-14T20:46:40.557Z,5.95
2022-10-14T20:49:09.376Z,12.68
2022-10-14T20:51:37.929Z,13.68
2022-10-14T20:54:10.943Z,10.73
2022-10-14T20:56:40.293Z,12.33
2022-10-14T20:59:13.152Z,11.15
2022-10-14T21:01:41.857Z,14.13
2022-10-14T21:04:10.423Z,11.02
2022-10-14T21:06:39.583Z,13.85
2022-10-14T21:09:08.479Z,17.67
2022-10-14T21:11:36.737Z,11.40
2022-10-14T21:14:05.459Z,10.75
2022-10-14T21:16:36.673Z,16.80
2022-10-14T21:19:07.534Z,16.08
2022-10-14T21:21:39.906Z,11.52
2022-10-14T21:24:09.565Z,8.38
2022-10-14T21:26:38.052Z,13.20
2022-10-14T21:29:06.531Z,12.38
2022-10-14T21:31:36.458Z,11.88
2022-10-14T21:34:06.556Z,16.13
2022-10-14T21:36:35.917Z,7.85
2022-10-14T21:39:07.757Z,8.82
2022-10-14T21:41:36.521Z,5.57
2022-10-14T21:44:06.530Z,14.30
2022-10-14T21:46:36.794Z,14.90
2022-10-14T21:49:05.123Z,11.15
2022-10-14T21:51:33.685Z,8.10
2022-10-14T21:54:01.942Z,10.60
2022-10-14T21:56:30.148Z,16.35
2022-10-14T21:58:58.418Z,7.65
2022-10-14T22:01:28.993Z,8.10
2022-10-14T22:04:01.074Z,12.73
2022-10-14T22:06:29.885Z,6.63
2022-10-14T22:09:00.332Z,7.25
2022-10-14T22:11:31.054Z,8.88
2022-10-14T22:14:02.117Z,9.55
2022-10-14T22:16:31.282Z,7.55
2022-10-14T22:19:03.161Z,10.55
2022-10-14T22:21:34.841Z,5.03
2022-10-14T22:24:03.775Z,4.43
2022-10-14T22:26:33.165Z,4.90
2022-10-14T22:29:04.394Z,12.85
2022-10-14T22:31:33.904Z,9.43
2022-10-14T22:34:05.954Z,11.55
2022-10-14T22:36:36.297Z,5.90
2022-10-14T22:39:08.868Z,6.03
2022-10-14T22:41:37.420Z,4.28
2022-10-14T22:44:08.311Z,7.75
2022-10-14T22:46:38.926Z,4.65
2022-10-14T22:49:08.700Z,6.75
2022-10-14T22:51:41.220Z,7.00
2022-10-14T22:54:10.324Z,8.52
2022-10-14T22:56:39.842Z,6.90
2022-10-14T22:59:10.697Z,9.65
2022-10-14T23:01:39.411Z,6.13
2022-10-14T23:04:09.995Z,6.00
2022-10-14T23:06:39.689Z,6.72
2022-10-14T23:09:07.895Z,8.10
2022-10-14T23:11:36.171Z,6.15
2022-10-14T23:14:07.089Z,6.25
2022-10-14T23:16:36.077Z,5.78
2022-10-14T23:19:04.631Z,9.25
2022-10-14T23:21:36.383Z,10.20
2022-10-14T23:24:08.972Z,8.23
2022-10-14T23:26:37.759Z,6.88
2022-10-14T23:29:09.693Z,11.07
2022-10-14T23:31:39.148Z,9.70
2022-10-14T23:34:11.689Z,7.22
2022-10-14T23:36:41.828Z,9.23
2022-10-14T23:39:10.359Z,11.68
2022-10-14T23:41:38.979Z,8.18
2022-10-14T23:44:07.184Z,7.32
2022-10-14T23:46:35.669Z,11.07
2022-10-14T23:49:21.127Z,7.68
2022-10-14T23:51:53.616Z,11.55
2022-10-14T23:54:21.875Z,7.57
2022-10-14T23:56:50.470Z,5.55
2022-10-14T23:59:18.814Z,5.68
